OJAI/AMM METAR and TAF weather

Enter ICAO airport designator
Station Type Date Time Source
OJAI METAR 2019/02/16 03:00 UTC NOAA

OJAI 160300Z 24011KT 5000 DU SCT030 BKN035 08/05 Q1018 NOSIG


Station Type Date Time Source
OJAI Decoded METAR 2019/02/16 03:00 UTC NOAA

Queen Alia Airport, Jordan (OJAI) 31-40N 035-58E
Feb 15, 2019 - 10:00 PM EST / 2019.02.16 0300 UTC
Wind: from the WSW (240 degrees) at 13 MPH (11 KT):0
Visibility: 3 mile(s):0
Sky conditions: mostly cloudy
Weather: widespread dust
Temperature: 46 F (8 C)
Dew Point: 41 F (5 C)
Relative Humidity: 81%
Pressure (altimeter): 30.06 in. Hg (1018 hPa)
ob: OJAI 160300Z 24011KT 5000 DU SCT030 BKN035 08/05 Q1018 NOSIG
cycle: 3

Station Type Date Time Source
OJAI TAF 2019/02/15 18:15 UTC NOAA

TAF TAF OJAI 151700Z 1518/1624 25016KT 4000 BLDU SCT030TCU SCT035 BKN080
BECMG 1520/1522 2000 TSRA FEW030CB BKN030 BKN035
BECMG 1616/1620 27005KT 2000 BR


Example: see airport list